LFBHLFBP

Guest
Details From LFBH - La Rochelle Laleu
To LFBP - Pau Pyrenees
Flight Number -
Tags generated
Created
Modified
Stats Distance 171 nm / 318 km
Max Altitude 17,800 ft / 5,425 m
Waypoints 3
Social Downloads 1
Likes 0
Share

Download

Looking for another format? Having issues loading an existing format? Contact us
Advertisement - Login to hide

Notes

Basic altitude profile: - Ascent Rate: 2500ft/min - Ascent Speed: 250kts - Cruise Altitude: 2500ft - Cruise Speed: 420kts - Descent Rate: 1500ft/min - Descent Speed: 250kts Options: - Use NATs: yes - Use PACOTS: yes - Use low airways: no - Use high airways: yes

Route

LFBH BMC LFBP

ID Type Via Altitude (ft/m) Position (lat/lon) Dist (leg/tot) Name
O LFBH APT - 0 / 0 46.17924 / -1.19641 - / 0 nm La Rochelle Laleu
BMC VOR - 17,800 / 5,425 44.82694 / -0.72111 83 / 83 nm BORDEAUX MERIGNAC VOR-DME
O LFBP APT - 0 / 0 43.38108 / -0.42075 87 / 171 nm Pau Pyrenees

Altitude Profile

Advertisement - Login to hide

Weather


0- 5 10 15 20 25 30 35+ Temperature / °C

Clouds and Precipitation
Forecast for 2021-08-05 18:00 UTC. Updated 2 hours ago

Ground ~20,000 ft ~40,000 ft Winds

LFBH

Details ICAO LFBH (LRH)
Name La Rochelle Laleu
Region France
Timezone Europe/Paris (UTC+2.0)
Stats Elevation 74 ft / 23 m (AMSL)
Location 46.179200° -1.196360°
Runways 1
Magnetic Variation 0.173° E

METAR

LFBH 051800Z AUTO 25016KT 9999 BKN020 BKN028 BKN037 20/16 Q1009 TEMPO 24020G33KT 4000 -SHRA BKN014TCU

Decode

TAF

TAF LFBH 051700Z 0518/0618 25014KT 9999 BKN018 TEMPO 0518/0524 24020G33KT PROB40 TEMPO 0518/0522 4000 -SHRA BKN014TCU

Decode

Departure Runways

ID Width Length Bearing (true/mag) Surface Threshold Overrun Markings Lighting
09 148 ft / 45 m 7,383 ft / 2,250 m 92.43° / 92.26° ASPHALT 1,033 ft / 315 m 0 ft / 0 m APP EDGE THRESHOLD ALSF-I REIL-OMNI
27 148 ft / 45 m 7,383 ft / 2,250 m 272.45° / 272.28° ASPHALT 1,532 ft / 467 m 0 ft / 0 m PREC-APP EDGE THRESHOLD MALS REIL-OMNI

LFBP

Details ICAO LFBP (PUF)
Name Pau Pyrenees
Region France
Timezone Europe/Paris (UTC+2.0)
Stats Elevation 616 ft / 188 m (AMSL)
Location 43.381100° -0.420774°
Runways 1
Magnetic Variation 0.537° E

METAR

LFBP 051800Z AUTO 30009KT 9999 OVC054 23/15 Q1013 NOSIG

Decode

TAF

TAF LFBP 051700Z 0518/0618 30012KT 9999 OVC040 BECMG 0522/0524 24005KT

Decode

Destination Runways

ID Width Length Bearing (true/mag) Surface Threshold Overrun Markings Lighting
13 148 ft / 45 m 8,174 ft / 2,492 m 125.89° / 125.36° ASPHALT 0 ft / 0 m 0 ft / 0 m APP CENTERLINE EDGE THRESHOLD
31 148 ft / 45 m 8,174 ft / 2,492 m 305.91° / 305.37° ASPHALT 0 ft / 0 m 0 ft / 0 m PREC-APP CENTERLINE EDGE THRESHOLD CALVERT-ILS TDZ

Approach Navaids

Runway Type Ident Frequency Range Bearing (true/mag) Slope Elevation
31 LOC-ILS PYR 110.10 MHz 18 nm / 33 km 305.91° / 305.37 ° - 616 ft / 188 m (AMSL)
31 GS PYR 110.10 MHz 10 nm / 19 km 306.91° / 306.37 ° 3.00° 616 ft / 188 m (AMSL)
31 DME PU 110.10 MHz 18 nm / 33 km - - 608 ft / 185 m (AMSL)

Popular Alternatives